Time;durP1;ratioP1;P1;durP2;ratioP2;P2;SDS_P1;SDS_P2;PMS_P1;PMS_P2;Temp;Humidity;BMP_temperature;BMP_pressure;BME280_temperature;BME280_humidity;BME280_pressure;Samples;Min_cycle;Max_cycle;Signal;HPM_P1;HPM_P2
2022/09/25 00:00:50;;;;;;;12.18;4.20;;;8.70;99.90;;;;;;5051510;28;20120;-74
2022/09/25 00:03:17;;;;;;;10.88;3.88;;;8.70;99.90;;;;;;5071874;28;20032;-75
2022/09/25 00:05:44;;;;;;;10.00;3.97;;;8.60;99.90;;;;;;5052696;28;20049;-74
2022/09/25 00:08:11;;;;;;;10.20;3.88;;;8.50;99.90;;;;;;5057051;28;20033;-74
2022/09/25 00:10:42;;;;;;;10.35;3.85;;;8.60;99.90;;;;;;5061698;28;20044;-75
2022/09/25 00:13:09;;;;;;;10.30;4.50;;;8.60;99.90;;;;;;5071531;28;20514;-74
2022/09/25 00:15:35;;;;;;;11.98;4.22;;;8.50;99.90;;;;;;5060798;28;20123;-74
2022/09/25 00:18:01;;;;;;;17.45;4.60;;;8.40;99.90;;;;;;5039231;28;20049;-75
2022/09/25 00:20:26;;;;;;;10.20;4.15;;;8.60;99.90;;;;;;5038415;28;20036;-74
2022/09/25 00:22:53;;;;;;;13.90;4.35;;;8.50;99.90;;;;;;5057460;28;20044;-75
2022/09/25 00:25:19;;;;;;;15.65;4.80;;;8.40;99.90;;;;;;5048013;28;20116;-76
2022/09/25 00:27:45;;;;;;;13.07;4.57;;;8.60;99.90;;;;;;5061526;28;20394;-76
2022/09/25 00:30:12;;;;;;;13.02;4.80;;;8.60;99.90;;;;;;5055082;28;20041;-76
2022/09/25 00:32:39;;;;;;;13.68;5.20;;;8.60;99.90;;;;;;5054109;28;20043;-73
2022/09/25 00:35:05;;;;;;;15.40;4.90;;;8.70;99.90;;;;;;5054075;28;20060;-72
2022/09/25 00:37:35;;;;;;;12.23;4.65;;;8.60;99.90;;;;;;5057531;28;20071;-72
2022/09/25 00:40:05;;;;;;;16.50;5.03;;;8.50;99.90;;;;;;5050589;28;20091;-70
2022/09/25 00:42:31;;;;;;;15.88;4.70;;;8.60;99.90;;;;;;5056531;28;20547;-70
2022/09/25 00:45:05;;;;;;;7.68;3.13;;;8.70;99.90;;;;;;5054479;28;20040;-70
2022/09/25 00:47:52;;;;;;;10.88;3.35;;;8.60;99.90;;;;;;5056449;28;20075;-70
2022/09/25 00:50:37;;;;;;;5.28;2.05;;;8.40;99.90;;;;;;5063672;28;20049;-70
2022/09/25 00:53:14;;;;;;;6.75;1.95;;;8.40;99.90;;;;;;5071333;28;20049;-70
2022/09/25 00:55:43;;;;;;;6.10;1.60;;;8.30;99.90;;;;;;5052195;28;20060;-70
2022/09/25 00:58:12;;;;;;;11.55;3.80;;;8.10;99.90;;;;;;5063330;28;20446;-71
2022/09/25 01:00:37;;;;;;;12.55;4.22;;;8.20;99.90;;;;;;5048420;28;20037;-72
2022/09/25 01:03:04;;;;;;;12.55;4.78;;;8.10;99.90;;;;;;5039784;28;20368;-72
2022/09/25 01:05:34;;;;;;;13.88;4.18;;;8.10;99.90;;;;;;5052256;28;20074;-72
2022/09/25 01:08:03;;;;;;;15.35;4.78;;;8.20;99.90;;;;;;5045915;28;20041;-73
2022/09/25 01:10:28;;;;;;;15.50;5.20;;;8.20;99.90;;;;;;5047953;28;20124;-72
2022/09/25 01:12:56;;;;;;;17.08;5.13;;;8.20;99.90;;;;;;5054432;28;20174;-73
2022/09/25 01:15:54;;;;;;;12.50;5.18;;;8.40;99.90;;;;;;5063141;28;20040;-72
2022/09/25 01:18:51;;;;;;;17.02;5.45;;;8.40;99.90;;;;;;5054166;28;20499;-72
2022/09/25 01:21:29;;;;;;;17.88;5.15;;;8.60;99.90;;;;;;5066187;28;20033;-72
2022/09/25 01:24:17;;;;;;;21.92;5.53;;;8.50;99.90;;;;;;5056643;28;20036;-72
2022/09/25 01:27:10;;;;;;;18.63;5.35;;;8.50;99.90;;;;;;5049160;28;20037;-73
2022/09/25 01:30:17;;;;;;;17.48;6.03;;;8.50;99.90;;;;;;5053068;28;20059;-73
2022/09/25 01:32:55;;;;;;;20.52;5.65;;;8.70;99.90;;;;;;5057965;28;20059;-74
2022/09/25 01:35:23;;;;;;;12.60;5.07;;;8.70;99.90;;;;;;5057831;28;20135;-73
2022/09/25 01:37:58;;;;;;;15.25;5.03;;;8.60;99.90;;;;;;5048143;28;20479;-73
2022/09/25 01:40:34;;;;;;;19.77;5.90;;;8.60;99.90;;;;;;5059665;28;20119;-72
2022/09/25 01:43:15;;;;;;;17.42;4.93;;;8.50;99.90;;;;;;5056587;28;20524;-73
2022/09/25 01:45:52;;;;;;;18.08;5.47;;;8.50;99.90;;;;;;5055022;28;20041;-73
2022/09/25 01:48:23;;;;;;;16.33;5.05;;;8.50;99.90;;;;;;5048460;28;20037;-74
2022/09/25 01:50:58;;;;;;;12.15;4.70;;;8.40;99.90;;;;;;5053950;28;20052;-74
2022/09/25 01:53:31;;;;;;;15.80;5.38;;;8.40;99.90;;;;;;5046194;28;20164;-74
2022/09/25 01:56:05;;;;;;;11.75;5.43;;;8.40;99.90;;;;;;5049397;28;20040;-73
2022/09/25 01:58:40;;;;;;;14.88;5.15;;;8.50;99.90;;;;;;5071152;28;20056;-73
2022/09/25 02:01:23;;;;;;;20.73;5.40;;;8.40;99.90;;;;;;5046647;28;20360;-73
2022/09/25 02:04:07;;;;;;;18.20;5.15;;;8.40;99.90;;;;;;5042450;28;20119;-73
2022/09/25 02:06:34;;;;;;;18.55;5.18;;;8.50;99.90;;;;;;5038495;28;20399;-73
2022/09/25 02:09:08;;;;;;;15.65;5.07;;;8.40;99.90;;;;;;5069533;28;20037;-73
2022/09/25 02:11:42;;;;;;;15.57;5.00;;;8.40;99.90;;;;;;5049036;28;20041;-74
2022/09/25 02:14:25;;;;;;;17.40;5.32;;;8.50;99.90;;;;;;5048722;28;20037;-75
2022/09/25 02:16:55;;;;;;;13.02;4.82;;;8.50;99.90;;;;;;5052348;28;20041;-74
2022/09/25 02:22:22;;;;;;;20.55;5.30;;;8.40;99.90;;;;;;5054411;28;20074;-73
2022/09/25 02:25:10;;;;;;;15.93;5.50;;;8.40;99.90;;;;;;5048128;28;20041;-74
2022/09/25 02:27:36;;;;;;;15.48;5.20;;;8.40;99.90;;;;;;5055489;28;20087;-73
2022/09/25 02:30:02;;;;;;;14.02;5.18;;;8.50;99.90;;;;;;5054016;28;20041;-72
2022/09/25 02:32:32;;;;;;;20.75;5.43;;;8.30;99.90;;;;;;5054903;28;20041;-73
2022/09/25 02:34:58;;;;;;;10.98;5.20;;;8.40;99.90;;;;;;5050065;28;20821;-73
2022/09/25 02:37:25;;;;;;;13.52;5.38;;;8.40;99.90;;;;;;5050590;28;20033;-73
2022/09/25 02:39:56;;;;;;;17.20;5.68;;;8.40;99.90;;;;;;5050729;28;20039;-73
2022/09/25 02:42:36;;;;;;;3.43;1.70;;;8.30;99.90;;;;;;5046755;28;20037;-72
2022/09/25 02:45:22;;;;;;;9.63;2.60;;;8.40;99.90;;;;;;5056122;28;20550;-71
2022/09/25 02:48:05;;;;;;;2.25;1.30;;;8.30;99.90;;;;;;5049437;28;20036;-72
2022/09/25 02:51:06;;;;;;;16.10;4.28;;;8.00;99.90;;;;;;5057587;28;20060;-75
2022/09/25 02:53:43;;;;;;;9.77;3.80;;;7.80;99.90;;;;;;5003208;28;20470;-74
2022/09/25 02:56:33;;;;;;;14.18;4.40;;;7.90;99.90;;;;;;5047094;28;20044;-74
2022/09/25 02:59:08;;;;;;;13.63;4.93;;;7.90;99.90;;;;;;5049437;28;20034;-74
2022/09/25 03:01:37;;;;;;;17.45;4.93;;;7.90;99.90;;;;;;5073138;28;20044;-75
2022/09/25 03:04:04;;;;;;;18.50;5.13;;;8.00;99.90;;;;;;5060322;28;20036;-73
2022/09/25 03:06:30;;;;;;;23.98;5.45;;;8.00;99.90;;;;;;5056974;28;20032;-74
2022/09/25 03:08:57;;;;;;;14.32;4.95;;;8.30;99.90;;;;;;5060499;28;20037;-74
2022/09/25 03:11:27;;;;;;;14.30;5.40;;;8.20;99.90;;;;;;5052825;28;20268;-75
2022/09/25 03:13:59;;;;;;;18.52;5.40;;;8.30;99.90;;;;;;5054718;28;20045;-76
2022/09/25 03:16:38;;;;;;;15.80;5.53;;;8.30;99.90;;;;;;5040183;28;20044;-77
2022/09/25 03:19:04;;;;;;;10.63;4.53;;;8.30;99.90;;;;;;5068141;28;20403;-75
2022/09/25 03:21:29;;;;;;;14.27;4.88;;;8.30;99.90;;;;;;5054477;28;20120;-77
2022/09/25 03:23:55;;;;;;;12.38;5.05;;;8.30;99.90;;;;;;5053172;28;20414;-76
2022/09/25 03:26:23;;;;;;;13.95;5.07;;;8.20;99.90;;;;;;5064988;28;20084;-75
2022/09/25 03:28:49;;;;;;;20.77;5.40;;;8.40;99.90;;;;;;5054150;28;20044;-75
2022/09/25 03:31:15;;;;;;;11.90;5.18;;;8.30;99.90;;;;;;5059112;28;20047;-75
2022/09/25 03:33:42;;;;;;;14.93;4.80;;;8.30;99.90;;;;;;5057998;28;20040;-74
2022/09/25 03:36:12;;;;;;;11.50;4.70;;;8.20;99.90;;;;;;5036067;28;20046;-74
2022/09/25 03:38:40;;;;;;;10.38;4.63;;;8.20;99.90;;;;;;5070444;28;20037;-75
2022/09/25 03:41:07;;;;;;;13.55;4.68;;;8.20;99.90;;;;;;5044965;28;20033;-77
2022/09/25 03:43:37;;;;;;;7.05;2.90;;;8.00;99.90;;;;;;5057149;28;20062;-75
2022/09/25 03:46:12;;;;;;;9.23;3.38;;;8.00;99.90;;;;;;5053487;28;20159;-76
2022/09/25 03:48:39;;;;;;;12.38;4.70;;;7.90;99.90;;;;;;5051582;28;20041;-77
2022/09/25 03:51:05;;;;;;;15.65;5.00;;;8.10;99.90;;;;;;5051015;28;20036;-76
2022/09/25 03:53:32;;;;;;;18.88;4.63;;;8.10;99.90;;;;;;5039977;28;20040;-77
2022/09/25 03:56:10;;;;;;;14.75;5.03;;;8.00;99.90;;;;;;5055538;28;20104;-76
2022/09/25 03:58:38;;;;;;;13.98;5.20;;;8.00;99.90;;;;;;5053371;28;20135;-77
2022/09/25 04:01:04;;;;;;;16.90;4.68;;;8.10;99.90;;;;;;5050282;28;20041;-76
2022/09/25 04:03:32;;;;;;;15.57;5.05;;;8.20;99.90;;;;;;5054337;28;20462;-76
2022/09/25 04:06:00;;;;;;;14.88;4.85;;;8.30;99.90;;;;;;5040543;28;20318;-76
2022/09/25 04:08:26;;;;;;;25.60;5.10;;;8.10;99.90;;;;;;5048992;28;20043;-76
2022/09/25 04:10:55;;;;;;;20.63;5.28;;;8.20;99.90;;;;;;5055005;28;20053;-76
2022/09/25 04:13:21;;;;;;;10.43;4.72;;;8.20;99.90;;;;;;5071271;28;20067;-76
2022/09/25 04:15:46;;;;;;;14.95;4.80;;;8.30;99.90;;;;;;5039152;28;20414;-76
2022/09/25 04:18:13;;;;;;;17.35;4.90;;;8.30;99.90;;;;;;5051513;28;20127;-76
2022/09/25 04:20:39;;;;;;;17.00;4.65;;;8.30;99.90;;;;;;5054425;28;20112;-76
2022/09/25 04:23:05;;;;;;;16.75;4.88;;;8.20;99.90;;;;;;5047768;28;20135;-76
2022/09/25 04:25:31;;;;;;;11.45;4.30;;;8.20;99.90;;;;;;5058281;28;20456;-77
2022/09/25 04:27:57;;;;;;;17.30;4.65;;;8.20;99.90;;;;;;5057691;28;20039;-76
2022/09/25 04:30:24;;;;;;;14.13;4.70;;;8.10;99.90;;;;;;5060203;28;20048;-77
2022/09/25 04:35:34;;;;;;;13.68;4.18;;;8.10;99.90;;;;;;5056726;28;20103;-76
2022/09/25 04:38:00;;;;;;;13.85;4.47;;;8.10;99.90;;;;;;5056054;28;20029;-76
2022/09/25 04:40:27;;;;;;;13.35;4.32;;;8.00;99.90;;;;;;5057582;28;20429;-77
2022/09/25 04:43:00;;;;;;;12.90;4.32;;;8.20;99.90;;;;;;5050829;28;20095;-76
2022/09/25 04:45:27;;;;;;;13.07;4.10;;;8.10;99.90;;;;;;5055768;28;20120;-76
2022/09/25 04:47:54;;;;;;;13.52;4.05;;;8.20;99.90;;;;;;5056865;28;20404;-75
2022/09/25 04:50:23;;;;;;;11.75;3.78;;;8.20;99.90;;;;;;5057489;28;20614;-75
2022/09/25 04:52:50;;;;;;;12.05;3.85;;;8.30;99.90;;;;;;5047996;28;20089;-74
2022/09/25 04:55:20;;;;;;;14.65;4.28;;;8.40;99.90;;;;;;5051814;28;20418;-75
2022/09/25 04:57:51;;;;;;;12.05;4.10;;;8.20;99.90;;;;;;5043934;28;20426;-74
2022/09/25 05:00:18;;;;;;;7.15;2.42;;;8.40;99.90;;;;;;5050391;28;20466;-74
2022/09/25 05:02:44;;;;;;;8.13;2.80;;;8.30;99.90;;;;;;5055619;28;20445;-75
2022/09/25 05:05:10;;;;;;;5.72;2.88;;;8.20;99.90;;;;;;5037958;28;20437;-76
2022/09/25 05:07:36;;;;;;;5.95;2.50;;;8.30;99.90;;;;;;5062326;28;20040;-76
2022/09/25 05:10:01;;;;;;;9.18;2.45;;;8.20;99.90;;;;;;5031774;28;20055;-75
2022/09/25 05:12:27;;;;;;;5.90;2.10;;;8.20;99.90;;;;;;5062563;28;20043;-74
2022/09/25 05:14:52;;;;;;;9.82;2.50;;;8.20;99.90;;;;;;5074116;28;20044;-74
2022/09/25 05:17:18;;;;;;;8.20;2.58;;;8.10;99.90;;;;;;5060304;28;20048;-74
2022/09/25 05:19:44;;;;;;;4.45;2.08;;;8.10;99.90;;;;;;5069041;28;20170;-74
2022/09/25 05:22:09;;;;;;;6.28;2.58;;;8.10;99.90;;;;;;5055321;28;20047;-74
2022/09/25 05:24:38;;;;;;;9.50;2.63;;;8.00;99.90;;;;;;5076201;28;20032;-74
2022/09/25 05:27:03;;;;;;;6.25;2.88;;;7.90;99.90;;;;;;5073631;28;20594;-75
2022/09/25 05:29:30;;;;;;;9.63;3.10;;;7.90;99.90;;;;;;5050735;28;20044;-75
2022/09/25 05:31:55;;;;;;;8.57;2.88;;;7.90;99.90;;;;;;5049412;28;20032;-74
2022/09/25 05:34:21;;;;;;;8.45;2.38;;;8.00;99.90;;;;;;5051355;28;20155;-75
2022/09/25 05:36:46;;;;;;;6.10;1.77;;;7.90;99.90;;;;;;5050665;28;20047;-77
2022/09/25 05:39:12;;;;;;;4.32;1.85;;;7.70;99.90;;;;;;5049399;28;20075;-77
2022/09/25 05:41:38;;;;;;;9.88;3.33;;;7.60;99.90;;;;;;5058966;28;20033;-74
2022/09/25 05:44:08;;;;;;;11.65;3.50;;;7.50;99.90;;;;;;5052833;28;20391;-77
2022/09/25 05:46:37;;;;;;;8.27;3.58;;;7.70;99.90;;;;;;5054007;28;20044;-76
2022/09/25 05:49:04;;;;;;;11.95;3.63;;;7.70;99.90;;;;;;5043872;28;20285;-76
2022/09/25 05:51:30;;;;;;;10.60;3.60;;;7.90;99.90;;;;;;5041904;28;20130;-77
2022/09/25 05:53:56;;;;;;;10.95;3.60;;;8.00;99.90;;;;;;5061183;28;20045;-76
2022/09/25 05:56:23;;;;;;;9.70;3.38;;;8.10;99.90;;;;;;5050382;28;20033;-76
2022/09/25 05:58:49;;;;;;;11.15;2.92;;;8.20;99.90;;;;;;5049801;28;20041;-76
2022/09/25 06:01:15;;;;;;;13.38;3.15;;;8.30;99.90;;;;;;5049594;28;20395;-77
2022/09/25 06:03:41;;;;;;;9.02;2.90;;;8.30;99.90;;;;;;5051207;28;20130;-77
2022/09/25 06:06:06;;;;;;;8.32;3.20;;;8.30;99.90;;;;;;5031273;28;20036;-77
2022/09/25 06:08:35;;;;;;;14.18;3.55;;;8.30;99.90;;;;;;5046152;28;20037;-77
2022/09/25 06:11:02;;;;;;;11.57;3.55;;;8.40;99.90;;;;;;5046488;28;20049;-77
2022/09/25 06:13:30;;;;;;;11.85;3.35;;;8.50;99.90;;;;;;5050857;28;20033;-78
2022/09/25 06:15:56;;;;;;;11.02;3.45;;;8.50;99.90;;;;;;5049164;28;20053;-77
2022/09/25 06:18:23;;;;;;;8.25;2.83;;;8.60;99.90;;;;;;5048597;28;20464;-78
2022/09/25 06:20:50;;;;;;;10.73;3.20;;;8.60;99.90;;;;;;5047548;28;20476;-74
2022/09/25 06:23:16;;;;;;;12.77;3.00;;;8.70;99.90;;;;;;5057775;28;20495;-75
2022/09/25 06:25:42;;;;;;;6.78;2.63;;;8.90;99.90;;;;;;5056537;28;20041;-73
2022/09/25 06:28:10;;;;;;;13.35;2.95;;;9.00;99.90;;;;;;5054617;28;20380;-75
2022/09/25 06:30:37;;;;;;;8.93;3.17;;;9.00;99.90;;;;;;5060611;28;20045;-75
2022/09/25 06:33:13;;;;;;;7.25;2.78;;;9.10;99.90;;;;;;5047137;28;20109;-77
2022/09/25 06:35:43;;;;;;;6.63;2.80;;;9.20;99.90;;;;;;5059885;28;20041;-73
2022/09/25 06:38:09;;;;;;;8.43;2.97;;;9.40;99.90;;;;;;5055857;28;20033;-75
2022/09/25 06:40:36;;;;;;;8.55;3.00;;;9.50;99.90;;;;;;5047777;28;20157;-73
2022/09/25 06:43:03;;;;;;;7.47;2.85;;;9.60;99.90;;;;;;5051478;28;20048;-72
2022/09/25 06:45:32;;;;;;;8.70;3.28;;;9.80;99.90;;;;;;5060533;28;20037;-74
2022/09/25 06:48:12;;;;;;;9.75;3.00;;;9.90;99.90;;;;;;5048249;28;20067;-73
2022/09/25 06:50:54;;;;;;;10.98;2.92;;;9.90;99.90;;;;;;5051629;28;20048;-72
2022/09/25 06:53:21;;;;;;;6.05;2.60;;;10.10;99.90;;;;;;5043155;28;20434;-73
2022/09/25 06:55:48;;;;;;;5.10;2.50;;;10.20;99.90;;;;;;5044863;28;20668;-75
2022/09/25 06:58:17;;;;;;;7.28;2.50;;;10.20;99.90;;;;;;5053778;28;20124;-74
2022/09/25 07:00:50;;;;;;;9.13;2.40;;;10.30;99.90;;;;;;5046864;28;20069;-72
2022/09/25 07:06:04;;;;;;;9.63;2.45;;;10.60;99.90;;;;;;5043231;28;20578;-74
2022/09/25 07:08:29;;;;;;;6.93;2.17;;;10.90;99.90;;;;;;5069839;28;20032;-75
2022/09/25 07:10:57;;;;;;;9.20;2.10;;;11.10;99.90;;;;;;5045882;28;20095;-74
2022/09/25 07:13:27;;;;;;;8.32;2.00;;;11.20;99.90;;;;;;5032663;28;20430;-74
2022/09/25 07:15:58;;;;;;;5.85;1.83;;;11.50;99.90;;;;;;5052727;28;20095;-73
2022/09/25 07:18:25;;;;;;;6.25;1.80;;;11.70;99.90;;;;;;5044271;28;20041;-75
2022/09/25 07:20:52;;;;;;;9.20;1.80;;;12.00;99.90;;;;;;5049025;28;20029;-76
2022/09/25 07:23:20;;;;;;;6.93;1.75;;;12.00;99.90;;;;;;5045734;28;20399;-75
2022/09/25 07:25:46;;;;;;;8.57;1.80;;;12.10;99.90;;;;;;5047172;28;20048;-73
2022/09/25 07:28:13;;;;;;;6.35;1.88;;;12.20;99.90;;;;;;5047759;28;20537;-72
2022/09/25 07:30:42;;;;;;;4.90;1.80;;;12.20;99.90;;;;;;5048109;28;20344;-74
2022/09/25 07:33:08;;;;;;;4.95;1.80;;;12.20;99.90;;;;;;5046199;28;20120;-73
2022/09/25 07:35:35;;;;;;;6.70;1.88;;;12.10;99.90;;;;;;5043828;28;20149;-72
2022/09/25 07:38:00;;;;;;;6.00;2.00;;;12.10;99.90;;;;;;5063442;28;20062;-72
2022/09/25 07:40:27;;;;;;;4.60;1.70;;;12.20;99.90;;;;;;5058247;28;20032;-74
2022/09/25 07:43:00;;;;;;;8.50;2.20;;;12.20;99.90;;;;;;5048705;28;20132;-72
2022/09/25 07:45:28;;;;;;;6.72;1.90;;;12.20;99.90;;;;;;5045027;28;20049;-74
2022/09/25 07:47:59;;;;;;;6.13;1.73;;;12.20;99.90;;;;;;5045688;28;20048;-71
2022/09/25 07:50:25;;;;;;;8.37;1.87;;;12.30;99.90;;;;;;5058877;28;20040;-74
2022/09/25 07:52:52;;;;;;;6.05;1.80;;;12.40;99.90;;;;;;5052004;28;20054;-74
2022/09/25 07:55:18;;;;;;;6.43;1.85;;;12.50;99.90;;;;;;5045128;28;20087;-74
2022/09/25 07:57:45;;;;;;;6.03;1.70;;;12.60;99.90;;;;;;5025551;28;20036;-72
2022/09/25 08:00:11;;;;;;;7.35;1.50;;;12.60;99.90;;;;;;5043492;28;20120;-73
2022/09/25 08:02:37;;;;;;;10.05;1.50;;;12.70;99.90;;;;;;5048124;28;20040;-72
2022/09/25 08:05:02;;;;;;;6.20;1.60;;;12.90;99.90;;;;;;5044522;28;20558;-72
2022/09/25 08:07:28;;;;;;;7.75;1.42;;;12.90;99.90;;;;;;5042879;28;20047;-74
2022/09/25 08:09:54;;;;;;;6.57;1.60;;;13.10;99.90;;;;;;5064273;28;20090;-74
2022/09/25 08:12:23;;;;;;;7.45;1.40;;;13.20;99.90;;;;;;5046058;28;20044;-72
2022/09/25 08:14:49;;;;;;;10.73;1.63;;;13.20;99.90;;;;;;5049493;28;20085;-72
2022/09/25 08:17:14;;;;;;;9.52;1.48;;;13.30;99.90;;;;;;5038301;28;20044;-73
2022/09/25 08:19:40;;;;;;;6.90;1.52;;;13.40;99.90;;;;;;5052851;28;20052;-73
2022/09/25 08:22:06;;;;;;;3.83;1.05;;;13.40;99.90;;;;;;5053129;28;20128;-72
2022/09/25 08:24:31;;;;;;;8.38;1.60;;;13.50;99.90;;;;;;5050543;28;20097;-75
2022/09/25 08:26:57;;;;;;;8.30;2.15;;;13.50;99.90;;;;;;5046294;28;20049;-70
2022/09/25 08:29:23;;;;;;;5.18;1.33;;;13.60;99.90;;;;;;5052919;28;20352;-78
2022/09/25 08:31:49;;;;;;;4.68;1.15;;;13.60;99.90;;;;;;5056712;28;20108;-75
2022/09/25 08:34:16;;;;;;;6.68;1.45;;;13.70;99.90;;;;;;5028878;28;20051;-72
2022/09/25 08:36:42;;;;;;;3.30;0.95;;;13.70;99.90;;;;;;5046211;28;20068;-75
2022/09/25 08:39:08;;;;;;;8.27;1.23;;;13.80;99.90;;;;;;5049394;28;20455;-72
2022/09/25 08:41:46;;;;;;;7.15;1.48;;;13.90;99.90;;;;;;5056562;28;20508;-76
2022/09/25 08:44:34;;;;;;;7.78;1.17;;;13.90;99.90;;;;;;5045734;28;20068;-75
2022/09/25 08:50:13;;;;;;;6.13;1.15;;;14.00;99.90;;;;;;5045419;28;20047;-75
2022/09/25 08:52:44;;;;;;;4.50;1.17;;;14.10;99.90;;;;;;5060385;28;20051;-75
2022/09/25 08:58:28;;;;;;;9.52;1.27;;;14.10;99.90;;;;;;5062224;28;20056;-70
2022/09/25 09:00:59;;;;;;;6.43;1.25;;;14.20;99.90;;;;;;5054540;28;20040;-73
2022/09/25 09:03:29;;;;;;;8.77;1.17;;;14.20;99.90;;;;;;5058274;28;20167;-74
2022/09/25 09:06:09;;;;;;;5.03;1.02;;;14.40;99.90;;;;;;5047479;28;20126;-75
2022/09/25 09:08:37;;;;;;;6.30;1.20;;;14.30;99.90;;;;;;5052328;28;20040;-71
2022/09/25 09:11:14;;;;;;;7.43;1.23;;;14.30;99.90;;;;;;5053777;28;20117;-73
2022/09/25 09:13:56;;;;;;;4.00;1.30;;;14.30;99.90;;;;;;5070666;28;20480;-77
2022/09/25 09:16:21;;;;;;;6.10;1.30;;;14.40;99.90;;;;;;5042162;28;20045;-74
2022/09/25 09:18:48;;;;;;;9.23;1.00;;;14.50;99.90;;;;;;5057344;28;20033;-75
2022/09/25 09:21:36;;;;;;;7.63;1.20;;;14.50;99.90;;;;;;5043299;28;20040;-76
2022/09/25 09:24:15;;;;;;;5.40;1.10;;;14.60;99.90;;;;;;5055188;28;20067;-74
2022/09/25 09:26:42;;;;;;;5.07;1.10;;;14.60;99.90;;;;;;5045345;28;20052;-74
2022/09/25 09:30:09;;;;;;;6.78;1.00;;;14.80;99.90;;;;;;5044892;28;20098;-72
2022/09/25 09:32:34;;;;;;;6.38;1.08;;;15.00;99.90;;;;;;5041109;28;20056;-74
2022/09/25 09:35:35;;;;;;;6.32;1.67;;;15.20;99.90;;;;;;5063564;28;20081;-75
2022/09/25 09:38:27;;;;;;;2.63;0.65;;;15.20;99.90;;;;;;5034725;28;20044;-72
2022/09/25 09:41:11;;;;;;;5.43;1.13;;;15.20;99.90;;;;;;5054966;28;20392;-71
2022/09/25 09:43:42;;;;;;;9.20;1.30;;;15.00;99.90;;;;;;5074171;28;20383;-75
2022/09/25 09:46:47;;;;;;;7.93;1.40;;;14.90;99.90;;;;;;5061984;28;20380;-75
2022/09/25 09:49:25;;;;;;;6.18;1.15;;;14.80;99.90;;;;;;5064195;28;20495;-75
2022/09/25 09:52:02;;;;;;;4.63;0.90;;;15.00;99.90;;;;;;5056285;28;20361;-72
2022/09/25 09:54:37;;;;;;;4.93;1.10;;;15.20;99.90;;;;;;5050461;28;20399;-72
2022/09/25 09:57:17;;;;;;;4.82;1.13;;;15.30;99.90;;;;;;5055257;28;20052;-72
2022/09/25 10:00:02;;;;;;;6.00;1.23;;;15.30;99.90;;;;;;5046436;28;20083;-73
2022/09/25 10:03:07;;;;;;;6.30;1.30;;;15.20;99.90;;;;;;5051929;28;20044;-69
2022/09/25 10:05:40;;;;;;;3.78;1.10;;;15.10;99.90;;;;;;5039742;28;20064;-69
2022/09/25 10:08:08;;;;;;;9.13;1.08;;;15.00;99.90;;;;;;5049261;28;20041;-71
2022/09/25 10:10:50;;;;;;;2.55;0.80;;;14.90;99.90;;;;;;5054587;28;20080;-72
2022/09/25 10:13:15;;;;;;;1.60;0.40;;;14.80;99.90;;;;;;5050938;28;20063;-71
2022/09/25 10:15:50;;;;;;;0.77;0.40;;;14.60;99.90;;;;;;5050653;28;20045;-69
2022/09/25 10:18:17;;;;;;;4.55;0.80;;;14.30;99.90;;;;;;5041172;28;20035;-77
2022/09/25 10:20:54;;;;;;;2.40;0.50;;;13.80;99.90;;;;;;5059435;28;20055;-74
2022/09/25 10:23:39;;;;;;;2.33;0.70;;;13.20;99.90;;;;;;5047222;28;20360;-74
2022/09/25 10:26:23;;;;;;;4.25;0.88;;;12.90;99.90;;;;;;5073324;28;20475;-74
2022/09/25 10:28:48;;;;;;;2.70;0.70;;;12.70;99.90;;;;;;5045802;28;20131;-70
2022/09/25 10:31:16;;;;;;;4.07;0.80;;;12.60;99.90;;;;;;5042671;28;20439;-75
2022/09/25 10:33:49;;;;;;;1.13;0.77;;;12.50;99.90;;;;;;5046572;28;20048;-75
2022/09/25 10:36:29;;;;;;;3.40;0.80;;;12.50;99.90;;;;;;5053546;28;20033;-72
2022/09/25 10:38:56;;;;;;;2.17;0.60;;;12.50;99.90;;;;;;5051196;28;20036;-72
2022/09/25 10:41:22;;;;;;;1.58;0.70;;;12.60;99.90;;;;;;5048884;28;20116;-74
2022/09/25 10:44:00;;;;;;;3.72;0.60;;;12.70;99.90;;;;;;5049161;28;20033;-76
2022/09/25 10:52:11;;;;;;;1.88;0.60;;;12.90;99.90;;;;;;5043195;28;20399;-75
2022/09/25 10:54:37;;;;;;;2.58;0.90;;;13.00;99.90;;;;;;5048175;28;20037;-78
2022/09/25 10:57:32;;;;;;;3.65;0.90;;;13.20;99.90;;;;;;5043237;28;20091;-77
2022/09/25 10:59:59;;;;;;;3.83;0.80;;;13.20;99.90;;;;;;5040870;28;20507;-77
2022/09/25 11:02:41;;;;;;;3.65;1.02;;;13.30;99.90;;;;;;5065282;28;20056;-74
2022/09/25 11:05:15;;;;;;;1.75;0.70;;;13.40;99.90;;;;;;5035466;28;20095;-76
2022/09/25 11:07:54;;;;;;;3.92;1.00;;;13.40;99.90;;;;;;5044418;28;20080;-74
2022/09/25 11:10:22;;;;;;;3.45;0.90;;;13.40;99.90;;;;;;5042936;28;20048;-75
2022/09/25 11:12:50;;;;;;;2.08;1.00;;;13.40;99.90;;;;;;5044955;28;20042;-75
2022/09/25 11:15:19;;;;;;;4.78;0.90;;;13.40;99.90;;;;;;5048629;28;20033;-76
2022/09/25 11:17:48;;;;;;;4.57;1.10;;;13.50;99.90;;;;;;5054201;28;20112;-76
2022/09/25 11:20:15;;;;;;;2.97;1.58;;;13.60;99.90;;;;;;5049630;28;20426;-74
2022/09/25 11:22:47;;;;;;;2.95;0.90;;;13.70;99.90;;;;;;5049003;28;20049;-75
2022/09/25 11:25:51;;;;;;;2.35;1.00;;;13.70;99.90;;;;;;5036876;28;20552;-74
2022/09/25 11:28:33;;;;;;;3.97;1.13;;;13.80;99.90;;;;;;5044831;28;20051;-75
2022/09/25 11:31:23;;;;;;;2.90;1.25;;;13.90;99.90;;;;;;5058263;28;20041;-74
2022/09/25 11:33:51;;;;;;;4.22;1.60;;;14.00;99.90;;;;;;5048448;28;20045;-74
2022/09/25 11:36:30;;;;;;;3.58;1.27;;;14.00;99.90;;;;;;5047175;28;20052;-76
2022/09/25 11:42:08;;;;;;;3.75;1.33;;;14.20;99.90;;;;;;5029045;28;20867;-75
2022/09/25 11:44:53;;;;;;;5.22;1.20;;;14.10;99.90;;;;;;5042621;28;20399;-76
2022/09/25 11:47:42;;;;;;;7.22;1.20;;;14.10;99.90;;;;;;5048802;28;20041;-73
2022/09/25 11:50:16;;;;;;;5.78;1.48;;;14.10;99.90;;;;;;5029098;28;20050;-76
2022/09/25 11:53:01;;;;;;;7.70;1.30;;;14.10;99.90;;;;;;5042365;28;20051;-76
2022/09/25 11:55:51;;;;;;;3.50;1.30;;;14.30;99.90;;;;;;5042914;28;20038;-73
2022/09/25 11:58:28;;;;;;;5.32;1.73;;;14.60;99.90;;;;;;5048157;28;20045;-73
2022/09/25 12:01:16;;;;;;;6.00;1.67;;;15.10;99.90;;;;;;5063864;28;20041;-74
2022/09/25 12:04:14;;;;;;;4.03;1.20;;;15.30;99.90;;;;;;5049079;28;20045;-77
2022/09/25 12:07:08;;;;;;;3.50;1.08;;;15.60;99.90;;;;;;5043772;28;20049;-73
2022/09/25 12:09:44;;;;;;;0.98;0.63;;;15.70;99.90;;;;;;5039254;28;20136;-71
2022/09/25 12:12:30;;;;;;;3.38;0.60;;;15.60;99.90;;;;;;5047290;28;20064;-72
2022/09/25 12:15:14;;;;;;;3.30;1.00;;;15.60;99.90;;;;;;5063140;28;20049;-75
2022/09/25 12:18:11;;;;;;;2.60;1.00;;;15.30;99.90;;;;;;5059976;28;20409;-73
2022/09/25 12:20:59;;;;;;;1.63;0.88;;;14.90;99.90;;;;;;5051568;28;20049;-74
2022/09/25 12:23:35;;;;;;;2.85;0.95;;;14.70;99.90;;;;;;5060119;28;20033;-74
2022/09/25 12:26:25;;;;;;;2.42;0.90;;;14.50;99.90;;;;;;5048655;28;20049;-73
2022/09/25 12:29:06;;;;;;;2.92;0.98;;;14.30;99.90;;;;;;5050291;28;20040;-73
2022/09/25 12:32:12;;;;;;;3.55;1.08;;;14.30;99.90;;;;;;5048159;28;20045;-71
2022/09/25 12:34:54;;;;;;;5.90;1.13;;;14.40;99.90;;;;;;5044445;28;20291;-72
2022/09/25 12:37:42;;;;;;;4.38;1.80;;;14.30;99.90;;;;;;5065558;28;20052;-73
2022/09/25 12:40:37;;;;;;;2.05;0.95;;;14.20;99.90;;;;;;5063431;28;20049;-72
2022/09/25 12:43:10;;;;;;;3.60;1.23;;;14.30;99.90;;;;;;5048340;28;20037;-73
2022/09/25 12:45:48;;;;;;;;;;;14.30;99.90;;;;;;5050332;28;20542;-71
2022/09/25 12:48:24;;;;;;;2.55;1.05;;;14.30;99.90;;;;;;5047881;28;20387;-71
2022/09/25 12:50:54;;;;;;;3.47;1.20;;;14.30;99.90;;;;;;5065485;28;20480;-73
2022/09/25 12:53:29;;;;;;;4.65;1.35;;;14.20;99.90;;;;;;5047479;28;20040;-73
2022/09/25 12:56:02;;;;;;;5.53;1.10;;;14.20;99.90;;;;;;5051592;28;20141;-73
2022/09/25 12:58:46;;;;;;;5.22;1.05;;;14.10;99.90;;;;;;5042634;28;20033;-72
2022/09/25 13:01:39;;;;;;;4.80;1.33;;;14.10;99.90;;;;;;5049791;28;20037;-73
2022/09/25 13:04:23;;;;;;;3.55;1.40;;;14.00;99.90;;;;;;5041433;28;20127;-72
2022/09/25 13:06:55;;;;;;;3.72;1.20;;;14.00;99.90;;;;;;5049214;28;20491;-72
2022/09/25 13:09:42;;;;;;;3.08;1.25;;;14.00;99.90;;;;;;5055760;28;20056;-72
2022/09/25 13:12:32;;;;;;;2.92;1.10;;;14.30;99.90;;;;;;5069027;28;20467;-73
2022/09/25 13:15:16;;;;;;;3.25;1.08;;;14.40;99.90;;;;;;5055691;28;20468;-70
2022/09/25 13:17:41;;;;;;;5.63;1.10;;;14.70;99.90;;;;;;5050510;28;20039;-72
2022/09/25 13:20:25;;;;;;;5.72;0.90;;;14.90;99.90;;;;;;5049179;28;20049;-74
2022/09/25 13:23:08;;;;;;;5.00;1.20;;;15.30;99.90;;;;;;5056360;28;20428;-75
2022/09/25 13:25:45;;;;;;;5.28;1.48;;;15.40;99.90;;;;;;5058479;28;20471;-73
2022/09/25 13:28:21;;;;;;;5.95;0.90;;;15.50;99.90;;;;;;5055422;28;20098;-73
2022/09/25 13:31:26;;;;;;;3.65;0.70;;;15.60;99.90;;;;;;5062199;28;20064;-74
2022/09/25 13:34:04;;;;;;;4.15;0.98;;;15.70;99.90;;;;;;5032869;28;20047;-73
2022/09/25 13:36:49;;;;;;;6.20;1.00;;;15.70;99.90;;;;;;5047587;28;20493;-73
2022/09/25 13:42:31;;;;;;;3.58;1.00;;;15.30;99.90;;;;;;5047161;28;20406;-72
2022/09/25 13:45:05;;;;;;;2.10;0.82;;;15.20;99.90;;;;;;5055381;28;20036;-75